sensor_id;sensor_type;location;lat;lon;timestamp;P1;durP1;ratioP1;P2;durP2;ratioP2
19205;SDS011;59358;52.134;5.596;2023-04-24T00:00:53;3.38;;;1.67;;
19205;SDS011;59358;52.134;5.596;2023-04-24T00:03:22;2.80;;;1.85;;
19205;SDS011;59358;52.134;5.596;2023-04-24T00:05:50;3.33;;;2.60;;
19205;SDS011;59358;52.134;5.596;2023-04-24T00:08:17;2.85;;;2.40;;
19205;SDS011;59358;52.134;5.596;2023-04-24T00:10:44;3.47;;;3.17;;
19205;SDS011;59358;52.134;5.596;2023-04-24T00:13:12;4.28;;;3.83;;
19205;SDS011;59358;52.134;5.596;2023-04-24T00:15:39;4.95;;;4.45;;
19205;SDS011;59358;52.134;5.596;2023-04-24T00:18:05;6.25;;;5.50;;
19205;SDS011;59358;52.134;5.596;2023-04-24T00:20:34;9.25;;;6.40;;
19205;SDS011;59358;52.134;5.596;2023-04-24T00:23:01;7.65;;;6.45;;
19205;SDS011;59358;52.134;5.596;2023-04-24T00:25:28;7.72;;;6.60;;
19205;SDS011;59358;52.134;5.596;2023-04-24T00:27:55;7.13;;;6.32;;
19205;SDS011;59358;52.134;5.596;2023-04-24T00:30:22;8.90;;;7.45;;
19205;SDS011;59358;52.134;5.596;2023-04-24T00:32:49;7.80;;;7.00;;
19205;SDS011;59358;52.134;5.596;2023-04-24T00:35:15;8.45;;;7.65;;
19205;SDS011;59358;52.134;5.596;2023-04-24T00:37:46;8.15;;;6.93;;
19205;SDS011;59358;52.134;5.596;2023-04-24T00:40:13;6.72;;;6.13;;
19205;SDS011;59358;52.134;5.596;2023-04-24T00:42:40;8.70;;;6.70;;
19205;SDS011;59358;52.134;5.596;2023-04-24T00:45:07;7.80;;;7.00;;
19205;SDS011;59358;52.134;5.596;2023-04-24T00:47:35;7.85;;;6.30;;
19205;SDS011;59358;52.134;5.596;2023-04-24T00:50:02;7.78;;;6.30;;
19205;SDS011;59358;52.134;5.596;2023-04-24T00:52:30;7.10;;;6.28;;
19205;SDS011;59358;52.134;5.596;2023-04-24T00:54:59;9.05;;;7.03;;
19205;SDS011;59358;52.134;5.596;2023-04-24T00:57:26;8.13;;;5.80;;
19205;SDS011;59358;52.134;5.596;2023-04-24T00:59:53;6.93;;;6.22;;
19205;SDS011;59358;52.134;5.596;2023-04-24T01:02:20;7.63;;;6.63;;
19205;SDS011;59358;52.134;5.596;2023-04-24T01:04:49;8.02;;;7.07;;
19205;SDS011;59358;52.134;5.596;2023-04-24T01:07:17;9.63;;;6.90;;
19205;SDS011;59358;52.134;5.596;2023-04-24T01:09:46;8.27;;;7.47;;
19205;SDS011;59358;52.134;5.596;2023-04-24T01:12:17;12.98;;;8.55;;
19205;SDS011;59358;52.134;5.596;2023-04-24T01:14:45;9.13;;;7.30;;
19205;SDS011;59358;52.134;5.596;2023-04-24T01:17:14;12.05;;;8.05;;
19205;SDS011;59358;52.134;5.596;2023-04-24T01:19:41;8.98;;;7.72;;
19205;SDS011;59358;52.134;5.596;2023-04-24T01:22:12;10.57;;;8.30;;
19205;SDS011;59358;52.134;5.596;2023-04-24T01:24:50;9.45;;;8.43;;
19205;SDS011;59358;52.134;5.596;2023-04-24T01:27:18;9.48;;;8.38;;
19205;SDS011;59358;52.134;5.596;2023-04-24T01:29:45;10.25;;;9.10;;
19205;SDS011;59358;52.134;5.596;2023-04-24T01:32:12;13.52;;;9.57;;
19205;SDS011;59358;52.134;5.596;2023-04-24T01:34:39;12.48;;;8.68;;
19205;SDS011;59358;52.134;5.596;2023-04-24T01:37:07;11.35;;;9.10;;
19205;SDS011;59358;52.134;5.596;2023-04-24T01:39:35;10.23;;;8.80;;
19205;SDS011;59358;52.134;5.596;2023-04-24T01:42:04;12.32;;;9.63;;
19205;SDS011;59358;52.134;5.596;2023-04-24T01:44:31;12.00;;;9.68;;
19205;SDS011;59358;52.134;5.596;2023-04-24T01:47:00;11.45;;;9.80;;
19205;SDS011;59358;52.134;5.596;2023-04-24T01:49:27;13.75;;;11.00;;
19205;SDS011;59358;52.134;5.596;2023-04-24T01:51:54;12.73;;;10.20;;
19205;SDS011;59358;52.134;5.596;2023-04-24T01:54:21;11.93;;;10.68;;
19205;SDS011;59358;52.134;5.596;2023-04-24T01:56:49;12.95;;;11.05;;
19205;SDS011;59358;52.134;5.596;2023-04-24T01:59:16;14.40;;;11.23;;
19205;SDS011;59358;52.134;5.596;2023-04-24T02:01:43;14.77;;;12.02;;
19205;SDS011;59358;52.134;5.596;2023-04-24T02:04:10;14.38;;;11.15;;
19205;SDS011;59358;52.134;5.596;2023-04-24T02:06:37;13.40;;;10.88;;
19205;SDS011;59358;52.134;5.596;2023-04-24T02:09:04;15.65;;;10.82;;
19205;SDS011;59358;52.134;5.596;2023-04-24T02:11:31;13.93;;;10.57;;
19205;SDS011;59358;52.134;5.596;2023-04-24T02:13:59;12.27;;;9.32;;
19205;SDS011;59358;52.134;5.596;2023-04-24T02:16:26;8.65;;;7.75;;
19205;SDS011;59358;52.134;5.596;2023-04-24T02:18:57;6.47;;;5.82;;
19205;SDS011;59358;52.134;5.596;2023-04-24T02:21:24;6.72;;;6.03;;
19205;SDS011;59358;52.134;5.596;2023-04-24T02:23:52;5.32;;;4.18;;
19205;SDS011;59358;52.134;5.596;2023-04-24T02:26:19;5.80;;;5.05;;
19205;SDS011;59358;52.134;5.596;2023-04-24T02:28:45;5.53;;;5.03;;
19205;SDS011;59358;52.134;5.596;2023-04-24T02:31:14;9.35;;;7.45;;
19205;SDS011;59358;52.134;5.596;2023-04-24T02:33:40;8.52;;;7.65;;
19205;SDS011;59358;52.134;5.596;2023-04-24T02:36:07;9.25;;;8.25;;
19205;SDS011;59358;52.134;5.596;2023-04-24T02:38:34;11.68;;;8.82;;
19205;SDS011;59358;52.134;5.596;2023-04-24T02:41:01;10.90;;;9.02;;
19205;SDS011;59358;52.134;5.596;2023-04-24T02:43:31;10.15;;;8.98;;
19205;SDS011;59358;52.134;5.596;2023-04-24T02:45:58;10.70;;;8.27;;
19205;SDS011;59358;52.134;5.596;2023-04-24T02:48:26;9.32;;;8.30;;
19205;SDS011;59358;52.134;5.596;2023-04-24T02:50:53;10.07;;;8.88;;
19205;SDS011;59358;52.134;5.596;2023-04-24T02:53:19;10.63;;;8.57;;
19205;SDS011;59358;52.134;5.596;2023-04-24T02:55:46;12.18;;;9.05;;
19205;SDS011;59358;52.134;5.596;2023-04-24T02:58:13;14.10;;;9.65;;
19205;SDS011;59358;52.134;5.596;2023-04-24T03:00:40;12.27;;;9.45;;
19205;SDS011;59358;52.134;5.596;2023-04-24T03:03:08;13.38;;;9.90;;
19205;SDS011;59358;52.134;5.596;2023-04-24T03:05:36;13.68;;;9.40;;
19205;SDS011;59358;52.134;5.596;2023-04-24T03:08:03;13.38;;;8.65;;
19205;SDS011;59358;52.134;5.596;2023-04-24T03:10:31;10.45;;;8.52;;
19205;SDS011;59358;52.134;5.596;2023-04-24T03:12:58;11.65;;;9.27;;
19205;SDS011;59358;52.134;5.596;2023-04-24T03:15:25;11.32;;;8.60;;
19205;SDS011;59358;52.134;5.596;2023-04-24T03:17:52;9.25;;;7.97;;
19205;SDS011;59358;52.134;5.596;2023-04-24T03:20:19;13.23;;;7.20;;
19205;SDS011;59358;52.134;5.596;2023-04-24T03:22:47;8.82;;;7.18;;
19205;SDS011;59358;52.134;5.596;2023-04-24T03:25:14;9.98;;;7.30;;
19205;SDS011;59358;52.134;5.596;2023-04-24T03:27:41;10.10;;;7.65;;
19205;SDS011;59358;52.134;5.596;2023-04-24T03:30:08;7.65;;;6.43;;
19205;SDS011;59358;52.134;5.596;2023-04-24T03:32:35;9.00;;;6.57;;
19205;SDS011;59358;52.134;5.596;2023-04-24T03:35:04;10.27;;;7.43;;
19205;SDS011;59358;52.134;5.596;2023-04-24T03:37:32;9.25;;;7.55;;
19205;SDS011;59358;52.134;5.596;2023-04-24T03:40:00;9.98;;;7.70;;
19205;SDS011;59358;52.134;5.596;2023-04-24T03:42:27;10.85;;;8.73;;
19205;SDS011;59358;52.134;5.596;2023-04-24T03:44:54;12.00;;;9.00;;
19205;SDS011;59358;52.134;5.596;2023-04-24T03:47:21;11.27;;;8.77;;
19205;SDS011;59358;52.134;5.596;2023-04-24T03:49:47;11.18;;;8.55;;
19205;SDS011;59358;52.134;5.596;2023-04-24T03:52:15;11.52;;;8.85;;
19205;SDS011;59358;52.134;5.596;2023-04-24T03:54:41;12.30;;;8.23;;
19205;SDS011;59358;52.134;5.596;2023-04-24T03:57:09;10.85;;;9.10;;
19205;SDS011;59358;52.134;5.596;2023-04-24T03:59:36;12.02;;;8.80;;
19205;SDS011;59358;52.134;5.596;2023-04-24T04:02:03;10.02;;;8.02;;
19205;SDS011;59358;52.134;5.596;2023-04-24T04:04:30;10.25;;;8.07;;
19205;SDS011;59358;52.134;5.596;2023-04-24T04:06:57;8.65;;;7.63;;
19205;SDS011;59358;52.134;5.596;2023-04-24T04:09:26;9.68;;;7.85;;
19205;SDS011;59358;52.134;5.596;2023-04-24T04:11:52;9.30;;;7.28;;
19205;SDS011;59358;52.134;5.596;2023-04-24T04:14:21;10.23;;;7.82;;
19205;SDS011;59358;52.134;5.596;2023-04-24T04:16:48;7.85;;;6.60;;
19205;SDS011;59358;52.134;5.596;2023-04-24T04:19:16;7.65;;;6.05;;
19205;SDS011;59358;52.134;5.596;2023-04-24T04:21:42;6.40;;;5.15;;
19205;SDS011;59358;52.134;5.596;2023-04-24T04:24:10;5.85;;;4.93;;
19205;SDS011;59358;52.134;5.596;2023-04-24T04:26:37;4.97;;;4.47;;
19205;SDS011;59358;52.134;5.596;2023-04-24T04:29:05;4.85;;;4.25;;
19205;SDS011;59358;52.134;5.596;2023-04-24T04:31:33;8.02;;;4.68;;
19205;SDS011;59358;52.134;5.596;2023-04-24T04:34:00;5.60;;;4.53;;
19205;SDS011;59358;52.134;5.596;2023-04-24T04:36:27;5.60;;;4.45;;
19205;SDS011;59358;52.134;5.596;2023-04-24T04:38:55;7.47;;;5.35;;
19205;SDS011;59358;52.134;5.596;2023-04-24T04:41:24;7.90;;;5.38;;
19205;SDS011;59358;52.134;5.596;2023-04-24T04:43:51;7.30;;;5.95;;
19205;SDS011;59358;52.134;5.596;2023-04-24T04:46:18;7.72;;;6.38;;
19205;SDS011;59358;52.134;5.596;2023-04-24T04:48:46;8.25;;;6.47;;
19205;SDS011;59358;52.134;5.596;2023-04-24T04:51:15;7.60;;;6.47;;
19205;SDS011;59358;52.134;5.596;2023-04-24T04:53:42;7.25;;;6.00;;
19205;SDS011;59358;52.134;5.596;2023-04-24T04:56:09;6.75;;;5.45;;
19205;SDS011;59358;52.134;5.596;2023-04-24T04:58:36;5.75;;;4.90;;
19205;SDS011;59358;52.134;5.596;2023-04-24T05:01:04;5.95;;;4.53;;
19205;SDS011;59358;52.134;5.596;2023-04-24T05:03:31;5.60;;;4.45;;
19205;SDS011;59358;52.134;5.596;2023-04-24T05:05:59;5.22;;;4.13;;
19205;SDS011;59358;52.134;5.596;2023-04-24T05:08:27;6.07;;;4.47;;
19205;SDS011;59358;52.134;5.596;2023-04-24T05:10:55;4.55;;;3.63;;
19205;SDS011;59358;52.134;5.596;2023-04-24T05:13:22;5.05;;;3.88;;
19205;SDS011;59358;52.134;5.596;2023-04-24T05:15:48;5.18;;;4.15;;
19205;SDS011;59358;52.134;5.596;2023-04-24T05:18:15;6.65;;;3.75;;
19205;SDS011;59358;52.134;5.596;2023-04-24T05:20:42;5.18;;;4.43;;
19205;SDS011;59358;52.134;5.596;2023-04-24T05:23:11;5.57;;;4.43;;
19205;SDS011;59358;52.134;5.596;2023-04-24T05:25:37;9.63;;;5.30;;
19205;SDS011;59358;52.134;5.596;2023-04-24T05:28:05;10.10;;;5.70;;
19205;SDS011;59358;52.134;5.596;2023-04-24T05:30:32;7.53;;;5.28;;
19205;SDS011;59358;52.134;5.596;2023-04-24T05:32:59;7.75;;;6.38;;
19205;SDS011;59358;52.134;5.596;2023-04-24T05:35:26;11.88;;;6.70;;
19205;SDS011;59358;52.134;5.596;2023-04-24T05:37:53;7.88;;;6.20;;
19205;SDS011;59358;52.134;5.596;2023-04-24T05:40:21;6.75;;;5.68;;
19205;SDS011;59358;52.134;5.596;2023-04-24T05:42:48;8.52;;;6.90;;
19205;SDS011;59358;52.134;5.596;2023-04-24T05:45:14;10.73;;;7.20;;
19205;SDS011;59358;52.134;5.596;2023-04-24T05:47:41;10.77;;;6.63;;
19205;SDS011;59358;52.134;5.596;2023-04-24T05:50:09;11.00;;;7.05;;
19205;SDS011;59358;52.134;5.596;2023-04-24T05:52:36;7.72;;;5.88;;
19205;SDS011;59358;52.134;5.596;2023-04-24T05:55:03;8.35;;;6.18;;
19205;SDS011;59358;52.134;5.596;2023-04-24T05:57:32;7.68;;;6.25;;
19205;SDS011;59358;52.134;5.596;2023-04-24T05:59:58;7.65;;;5.95;;
19205;SDS011;59358;52.134;5.596;2023-04-24T06:02:25;9.15;;;6.15;;
19205;SDS011;59358;52.134;5.596;2023-04-24T06:04:52;10.32;;;6.10;;
19205;SDS011;59358;52.134;5.596;2023-04-24T06:07:20;9.93;;;6.25;;
19205;SDS011;59358;52.134;5.596;2023-04-24T06:09:47;12.15;;;6.93;;
19205;SDS011;59358;52.134;5.596;2023-04-24T06:12:13;7.47;;;5.35;;
19205;SDS011;59358;52.134;5.596;2023-04-24T06:14:41;9.93;;;6.40;;
19205;SDS011;59358;52.134;5.596;2023-04-24T06:17:08;10.27;;;6.30;;
19205;SDS011;59358;52.134;5.596;2023-04-24T06:19:35;10.35;;;6.60;;
19205;SDS011;59358;52.134;5.596;2023-04-24T06:22:02;12.30;;;6.90;;
19205;SDS011;59358;52.134;5.596;2023-04-24T06:24:29;14.18;;;7.75;;
19205;SDS011;59358;52.134;5.596;2023-04-24T06:26:56;11.60;;;7.07;;
19205;SDS011;59358;52.134;5.596;2023-04-24T06:29:23;13.27;;;7.43;;
19205;SDS011;59358;52.134;5.596;2023-04-24T06:31:52;12.55;;;7.07;;
19205;SDS011;59358;52.134;5.596;2023-04-24T06:34:18;11.75;;;7.28;;
19205;SDS011;59358;52.134;5.596;2023-04-24T06:36:46;11.20;;;6.90;;
19205;SDS011;59358;52.134;5.596;2023-04-24T06:39:13;12.57;;;6.50;;
19205;SDS011;59358;52.134;5.596;2023-04-24T06:41:39;12.13;;;7.15;;
19205;SDS011;59358;52.134;5.596;2023-04-24T06:44:06;11.35;;;5.88;;
19205;SDS011;59358;52.134;5.596;2023-04-24T06:46:33;8.73;;;4.72;;
19205;SDS011;59358;52.134;5.596;2023-04-24T06:49:01;6.22;;;4.43;;
19205;SDS011;59358;52.134;5.596;2023-04-24T06:51:28;7.30;;;3.95;;
19205;SDS011;59358;52.134;5.596;2023-04-24T06:53:58;5.72;;;3.88;;
19205;SDS011;59358;52.134;5.596;2023-04-24T06:56:25;7.53;;;3.83;;
19205;SDS011;59358;52.134;5.596;2023-04-24T06:58:53;8.48;;;5.50;;
19205;SDS011;59358;52.134;5.596;2023-04-24T07:01:20;11.68;;;7.13;;
19205;SDS011;59358;52.134;5.596;2023-04-24T07:03:47;19.67;;;9.88;;
19205;SDS011;59358;52.134;5.596;2023-04-24T07:06:15;20.50;;;10.52;;
19205;SDS011;59358;52.134;5.596;2023-04-24T07:08:43;23.63;;;14.38;;
19205;SDS011;59358;52.134;5.596;2023-04-24T07:11:12;29.38;;;16.50;;
19205;SDS011;59358;52.134;5.596;2023-04-24T07:13:39;33.17;;;18.02;;
19205;SDS011;59358;52.134;5.596;2023-04-24T07:16:07;30.65;;;16.63;;
19205;SDS011;59358;52.134;5.596;2023-04-24T07:18:34;36.40;;;19.10;;
19205;SDS011;59358;52.134;5.596;2023-04-24T07:21:01;33.15;;;18.20;;
19205;SDS011;59358;52.134;5.596;2023-04-24T07:23:30;30.10;;;17.98;;
19205;SDS011;59358;52.134;5.596;2023-04-24T07:25:56;27.48;;;17.50;;
19205;SDS011;59358;52.134;5.596;2023-04-24T07:28:23;27.42;;;17.63;;
19205;SDS011;59358;52.134;5.596;2023-04-24T07:30:50;34.33;;;19.85;;
19205;SDS011;59358;52.134;5.596;2023-04-24T07:33:22;40.90;;;21.35;;
19205;SDS011;59358;52.134;5.596;2023-04-24T07:35:56;41.63;;;23.20;;
19205;SDS011;59358;52.134;5.596;2023-04-24T07:38:23;40.45;;;21.85;;
19205;SDS011;59358;52.134;5.596;2023-04-24T07:40:52;40.17;;;21.77;;
19205;SDS011;59358;52.134;5.596;2023-04-24T07:43:19;34.47;;;21.00;;
19205;SDS011;59358;52.134;5.596;2023-04-24T07:45:46;45.92;;;23.15;;
19205;SDS011;59358;52.134;5.596;2023-04-24T07:48:13;39.72;;;21.40;;
19205;SDS011;59358;52.134;5.596;2023-04-24T07:50:41;46.63;;;22.55;;
19205;SDS011;59358;52.134;5.596;2023-04-24T07:53:08;43.40;;;20.40;;
19205;SDS011;59358;52.134;5.596;2023-04-24T07:55:35;38.72;;;20.33;;
19205;SDS011;59358;52.134;5.596;2023-04-24T07:58:05;33.75;;;19.92;;
19205;SDS011;59358;52.134;5.596;2023-04-24T08:00:32;40.90;;;20.48;;
19205;SDS011;59358;52.134;5.596;2023-04-24T08:02:59;30.10;;;18.42;;
19205;SDS011;59358;52.134;5.596;2023-04-24T08:05:26;35.50;;;20.20;;
19205;SDS011;59358;52.134;5.596;2023-04-24T08:07:53;38.00;;;19.17;;
19205;SDS011;59358;52.134;5.596;2023-04-24T08:10:20;36.33;;;18.40;;
19205;SDS011;59358;52.134;5.596;2023-04-24T08:12:47;36.13;;;18.90;;
19205;SDS011;59358;52.134;5.596;2023-04-24T08:15:16;37.65;;;18.75;;
19205;SDS011;59358;52.134;5.596;2023-04-24T08:17:43;34.35;;;19.50;;
19205;SDS011;59358;52.134;5.596;2023-04-24T08:20:10;41.10;;;21.08;;
19205;SDS011;59358;52.134;5.596;2023-04-24T08:22:38;39.17;;;19.88;;
19205;SDS011;59358;52.134;5.596;2023-04-24T08:25:06;35.95;;;18.55;;
19205;SDS011;59358;52.134;5.596;2023-04-24T08:27:33;38.80;;;19.15;;
19205;SDS011;59358;52.134;5.596;2023-04-24T08:30:01;32.17;;;14.73;;
19205;SDS011;59358;52.134;5.596;2023-04-24T08:32:30;32.47;;;16.33;;
19205;SDS011;59358;52.134;5.596;2023-04-24T08:34:57;32.42;;;12.27;;
19205;SDS011;59358;52.134;5.596;2023-04-24T08:37:25;22.15;;;12.23;;
19205;SDS011;59358;52.134;5.596;2023-04-24T08:39:53;28.80;;;11.43;;
19205;SDS011;59358;52.134;5.596;2023-04-24T08:42:20;34.05;;;12.02;;
19205;SDS011;59358;52.134;5.596;2023-04-24T08:44:48;42.28;;;12.80;;
19205;SDS011;59358;52.134;5.596;2023-04-24T08:47:15;22.88;;;10.73;;
19205;SDS011;59358;52.134;5.596;2023-04-24T08:49:43;23.05;;;10.75;;
19205;SDS011;59358;52.134;5.596;2023-04-24T08:52:13;24.52;;;8.90;;
19205;SDS011;59358;52.134;5.596;2023-04-24T08:54:42;19.35;;;9.02;;
19205;SDS011;59358;52.134;5.596;2023-04-24T09:00:33;20.52;;;9.13;;
19205;SDS011;59358;52.134;5.596;2023-04-24T09:03:00;20.65;;;9.82;;
19205;SDS011;59358;52.134;5.596;2023-04-24T09:05:31;27.95;;;10.82;;
19205;SDS011;59358;52.134;5.596;2023-04-24T09:11:02;33.03;;;11.32;;
19205;SDS011;59358;52.134;5.596;2023-04-24T09:13:30;27.90;;;10.98;;
19205;SDS011;59358;52.134;5.596;2023-04-24T09:15:58;28.92;;;9.95;;
19205;SDS011;59358;52.134;5.596;2023-04-24T09:18:25;30.55;;;10.07;;
19205;SDS011;59358;52.134;5.596;2023-04-24T09:21:00;30.15;;;9.73;;
19205;SDS011;59358;52.134;5.596;2023-04-24T09:23:29;21.98;;;6.13;;
19205;SDS011;59358;52.134;5.596;2023-04-24T09:25:56;13.45;;;4.57;;
19205;SDS011;59358;52.134;5.596;2023-04-24T09:28:35;19.23;;;5.93;;
19205;SDS011;59358;52.134;5.596;2023-04-24T09:31:06;8.93;;;3.95;;
19205;SDS011;59358;52.134;5.596;2023-04-24T09:33:35;18.25;;;4.78;;
19205;SDS011;59358;52.134;5.596;2023-04-24T09:36:04;11.60;;;4.57;;
19205;SDS011;59358;52.134;5.596;2023-04-24T09:38:32;16.05;;;4.55;;
19205;SDS011;59358;52.134;5.596;2023-04-24T09:41:01;12.48;;;4.50;;
19205;SDS011;59358;52.134;5.596;2023-04-24T09:43:28;13.77;;;3.95;;
19205;SDS011;59358;52.134;5.596;2023-04-24T09:45:56;13.20;;;4.00;;
19205;SDS011;59358;52.134;5.596;2023-04-24T09:48:30;16.83;;;4.53;;
19205;SDS011;59358;52.134;5.596;2023-04-24T09:50:57;15.15;;;4.07;;
19205;SDS011;59358;52.134;5.596;2023-04-24T09:53:26;10.60;;;3.60;;
19205;SDS011;59358;52.134;5.596;2023-04-24T09:55:53;8.07;;;3.10;;
19205;SDS011;59358;52.134;5.596;2023-04-24T09:58:24;16.17;;;3.67;;
19205;SDS011;59358;52.134;5.596;2023-04-24T10:00:53;12.90;;;3.42;;
19205;SDS011;59358;52.134;5.596;2023-04-24T10:03:23;13.07;;;3.70;;
19205;SDS011;59358;52.134;5.596;2023-04-24T10:05:52;14.75;;;3.70;;
19205;SDS011;59358;52.134;5.596;2023-04-24T10:08:20;10.52;;;4.28;;
19205;SDS011;59358;52.134;5.596;2023-04-24T10:10:49;10.57;;;3.70;;
19205;SDS011;59358;52.134;5.596;2023-04-24T10:13:15;13.57;;;3.83;;
19205;SDS011;59358;52.134;5.596;2023-04-24T10:15:42;8.50;;;3.15;;
19205;SDS011;59358;52.134;5.596;2023-04-24T10:18:10;12.95;;;4.20;;
19205;SDS011;59358;52.134;5.596;2023-04-24T10:20:38;15.88;;;4.22;;
19205;SDS011;59358;52.134;5.596;2023-04-24T10:23:06;11.07;;;3.80;;
19205;SDS011;59358;52.134;5.596;2023-04-24T10:25:33;10.27;;;3.90;;
19205;SDS011;59358;52.134;5.596;2023-04-24T10:28:03;7.68;;;3.55;;
19205;SDS011;59358;52.134;5.596;2023-04-24T10:30:31;10.27;;;3.60;;
19205;SDS011;59358;52.134;5.596;2023-04-24T10:33:01;11.02;;;3.13;;
19205;SDS011;59358;52.134;5.596;2023-04-24T10:35:29;12.18;;;3.80;;
19205;SDS011;59358;52.134;5.596;2023-04-24T10:37:59;13.10;;;3.25;;
19205;SDS011;59358;52.134;5.596;2023-04-24T10:40:35;8.88;;;2.95;;
19205;SDS011;59358;52.134;5.596;2023-04-24T10:43:04;21.75;;;3.97;;
19205;SDS011;59358;52.134;5.596;2023-04-24T10:45:33;7.35;;;3.17;;
19205;SDS011;59358;52.134;5.596;2023-04-24T10:48:01;10.43;;;3.22;;
19205;SDS011;59358;52.134;5.596;2023-04-24T10:50:30;7.38;;;2.42;;
19205;SDS011;59358;52.134;5.596;2023-04-24T10:53:12;11.95;;;3.00;;
19205;SDS011;59358;52.134;5.596;2023-04-24T10:55:41;9.38;;;2.10;;
19205;SDS011;59358;52.134;5.596;2023-04-24T10:58:11;7.35;;;2.28;;
19205;SDS011;59358;52.134;5.596;2023-04-24T11:00:38;4.68;;;1.50;;
19205;SDS011;59358;52.134;5.596;2023-04-24T11:03:06;8.13;;;2.00;;
19205;SDS011;59358;52.134;5.596;2023-04-24T11:05:55;3.67;;;1.67;;
19205;SDS011;59358;52.134;5.596;2023-04-24T11:08:24;3.67;;;1.63;;
19205;SDS011;59358;52.134;5.596;2023-04-24T11:10:59;7.35;;;1.75;;
19205;SDS011;59358;52.134;5.596;2023-04-24T11:16:30;3.83;;;1.70;;
19205;SDS011;59358;52.134;5.596;2023-04-24T11:19:02;6.07;;;1.55;;
19205;SDS011;59358;52.134;5.596;2023-04-24T11:21:31;7.30;;;2.08;;
19205;SDS011;59358;52.134;5.596;2023-04-24T11:23:58;10.57;;;2.20;;
19205;SDS011;59358;52.134;5.596;2023-04-24T11:26:56;7.95;;;1.83;;
19205;SDS011;59358;52.134;5.596;2023-04-24T11:32:18;6.93;;;2.33;;
19205;SDS011;59358;52.134;5.596;2023-04-24T11:34:49;8.77;;;2.42;;
19205;SDS011;59358;52.134;5.596;2023-04-24T11:37:18;7.22;;;2.50;;
19205;SDS011;59358;52.134;5.596;2023-04-24T11:39:45;5.55;;;2.63;;
19205;SDS011;59358;52.134;5.596;2023-04-24T11:42:13;5.63;;;2.10;;
19205;SDS011;59358;52.134;5.596;2023-04-24T11:44:41;4.22;;;2.05;;
19205;SDS011;59358;52.134;5.596;2023-04-24T11:47:09;7.43;;;2.33;;
19205;SDS011;59358;52.134;5.596;2023-04-24T11:49:37;8.88;;;2.67;;
19205;SDS011;59358;52.134;5.596;2023-04-24T11:52:04;6.82;;;1.85;;
19205;SDS011;59358;52.134;5.596;2023-04-24T11:54:31;4.80;;;1.67;;
19205;SDS011;59358;52.134;5.596;2023-04-24T11:56:58;5.43;;;1.55;;
19205;SDS011;59358;52.134;5.596;2023-04-24T11:59:25;5.68;;;1.70;;
19205;SDS011;59358;52.134;5.596;2023-04-24T12:01:52;7.65;;;1.83;;
19205;SDS011;59358;52.134;5.596;2023-04-24T12:04:19;4.50;;;1.52;;
19205;SDS011;59358;52.134;5.596;2023-04-24T12:07:02;2.58;;;1.42;;
19205;SDS011;59358;52.134;5.596;2023-04-24T12:09:39;5.10;;;1.50;;
19205;SDS011;59358;52.134;5.596;2023-04-24T12:12:07;2.40;;;1.25;;
19205;SDS011;59358;52.134;5.596;2023-04-24T12:14:41;2.88;;;1.00;;
19205;SDS011;59358;52.134;5.596;2023-04-24T12:17:13;1.83;;;0.90;;
19205;SDS011;59358;52.134;5.596;2023-04-24T12:19:44;3.15;;;1.10;;
19205;SDS011;59358;52.134;5.596;2023-04-24T12:22:13;2.97;;;1.50;;
19205;SDS011;59358;52.134;5.596;2023-04-24T12:25:00;2.08;;;1.10;;
19205;SDS011;59358;52.134;5.596;2023-04-24T12:27:29;4.15;;;1.02;;
19205;SDS011;59358;52.134;5.596;2023-04-24T12:29:57;5.85;;;1.50;;
19205;SDS011;59358;52.134;5.596;2023-04-24T12:32:24;5.25;;;1.95;;
19205;SDS011;59358;52.134;5.596;2023-04-24T12:34:52;6.82;;;1.65;;
19205;SDS011;59358;52.134;5.596;2023-04-24T12:37:21;5.68;;;2.50;;
19205;SDS011;59358;52.134;5.596;2023-04-24T12:40:00;4.43;;;1.45;;
19205;SDS011;59358;52.134;5.596;2023-04-24T12:42:28;6.63;;;1.80;;
19205;SDS011;59358;52.134;5.596;2023-04-24T12:44:56;6.30;;;1.85;;
19205;SDS011;59358;52.134;5.596;2023-04-24T12:47:25;6.13;;;1.45;;
19205;SDS011;59358;52.134;5.596;2023-04-24T12:49:52;5.20;;;1.60;;
19205;SDS011;59358;52.134;5.596;2023-04-24T12:52:21;4.57;;;1.60;;
19205;SDS011;59358;52.134;5.596;2023-04-24T12:54:48;8.23;;;1.70;;
19205;SDS011;59358;52.134;5.596;2023-04-24T12:57:15;7.25;;;1.90;;
19205;SDS011;59358;52.134;5.596;2023-04-24T12:59:42;5.82;;;1.90;;
19205;SDS011;59358;52.134;5.596;2023-04-24T13:02:09;5.95;;;1.45;;
19205;SDS011;59358;52.134;5.596;2023-04-24T13:04:36;4.60;;;1.98;;
19205;SDS011;59358;52.134;5.596;2023-04-24T13:07:03;8.15;;;1.83;;
19205;SDS011;59358;52.134;5.596;2023-04-24T13:09:33;6.72;;;2.03;;
19205;SDS011;59358;52.134;5.596;2023-04-24T13:12:01;9.02;;;2.25;;
19205;SDS011;59358;52.134;5.596;2023-04-24T13:14:28;6.00;;;1.92;;
19205;SDS011;59358;52.134;5.596;2023-04-24T13:16:55;8.52;;;2.50;;
19205;SDS011;59358;52.134;5.596;2023-04-24T13:19:23;6.10;;;2.45;;
19205;SDS011;59358;52.134;5.596;2023-04-24T13:21:51;13.32;;;3.30;;
19205;SDS011;59358;52.134;5.596;2023-04-24T13:24:18;6.10;;;2.38;;
19205;SDS011;59358;52.134;5.596;2023-04-24T13:26:46;9.63;;;3.05;;
19205;SDS011;59358;52.134;5.596;2023-04-24T13:29:13;12.50;;;3.13;;
19205;SDS011;59358;52.134;5.596;2023-04-24T13:31:39;11.77;;;3.15;;
19205;SDS011;59358;52.134;5.596;2023-04-24T13:34:06;14.23;;;3.50;;
19205;SDS011;59358;52.134;5.596;2023-04-24T13:36:33;10.73;;;3.38;;
19205;SDS011;59358;52.134;5.596;2023-04-24T13:39:00;13.73;;;3.25;;
19205;SDS011;59358;52.134;5.596;2023-04-24T13:41:28;10.15;;;3.03;;
19205;SDS011;59358;52.134;5.596;2023-04-24T13:43:56;12.35;;;3.42;;
19205;SDS011;59358;52.134;5.596;2023-04-24T13:46:23;11.38;;;3.78;;
19205;SDS011;59358;52.134;5.596;2023-04-24T13:48:50;16.42;;;3.00;;
19205;SDS011;59358;52.134;5.596;2023-04-24T13:51:17;12.32;;;2.72;;
19205;SDS011;59358;52.134;5.596;2023-04-24T13:53:44;14.13;;;2.80;;
19205;SDS011;59358;52.134;5.596;2023-04-24T13:56:11;10.05;;;3.22;;
19205;SDS011;59358;52.134;5.596;2023-04-24T13:58:39;11.93;;;2.80;;
19205;SDS011;59358;52.134;5.596;2023-04-24T14:01:07;12.23;;;3.35;;
19205;SDS011;59358;52.134;5.596;2023-04-24T14:03:34;15.93;;;3.78;;
19205;SDS011;59358;52.134;5.596;2023-04-24T14:06:00;9.07;;;3.15;;
19205;SDS011;59358;52.134;5.596;2023-04-24T14:08:27;15.45;;;4.22;;
19205;SDS011;59358;52.134;5.596;2023-04-24T14:10:54;11.77;;;3.63;;
19205;SDS011;59358;52.134;5.596;2023-04-24T14:13:21;11.75;;;3.30;;
19205;SDS011;59358;52.134;5.596;2023-04-24T14:15:48;7.13;;;2.95;;
19205;SDS011;59358;52.134;5.596;2023-04-24T14:18:16;14.48;;;3.97;;
19205;SDS011;59358;52.134;5.596;2023-04-24T14:20:43;9.13;;;3.03;;
19205;SDS011;59358;52.134;5.596;2023-04-24T14:23:10;8.82;;;3.35;;
19205;SDS011;59358;52.134;5.596;2023-04-24T14:25:37;11.77;;;3.08;;
19205;SDS011;59358;52.134;5.596;2023-04-24T14:28:04;12.10;;;3.25;;
19205;SDS011;59358;52.134;5.596;2023-04-24T14:30:32;11.63;;;3.45;;
19205;SDS011;59358;52.134;5.596;2023-04-24T14:32:59;11.63;;;3.38;;
19205;SDS011;59358;52.134;5.596;2023-04-24T14:35:27;16.92;;;4.22;;
19205;SDS011;59358;52.134;5.596;2023-04-24T14:37:56;15.52;;;5.72;;
19205;SDS011;59358;52.134;5.596;2023-04-24T14:40:23;12.10;;;3.72;;
19205;SDS011;59358;52.134;5.596;2023-04-24T14:42:50;15.77;;;3.50;;
19205;SDS011;59358;52.134;5.596;2023-04-24T14:45:17;18.52;;;4.35;;
19205;SDS011;59358;52.134;5.596;2023-04-24T14:47:44;14.27;;;4.38;;
19205;SDS011;59358;52.134;5.596;2023-04-24T14:50:11;14.80;;;3.72;;
19205;SDS011;59358;52.134;5.596;2023-04-24T14:52:39;18.42;;;4.35;;
19205;SDS011;59358;52.134;5.596;2023-04-24T14:55:06;15.15;;;4.93;;